createdAt,value
2018-09-14T00:01:32.959Z,16.00
2018-09-14T00:04:01.416Z,18.07
2018-09-14T00:06:29.839Z,15.03
2018-09-14T00:08:58.311Z,16.23
2018-09-14T00:11:26.743Z,14.40
2018-09-14T00:13:55.234Z,19.43
2018-09-14T00:16:24.382Z,19.87
2018-09-14T00:18:52.772Z,16.77
2018-09-14T00:21:21.160Z,13.20
2018-09-14T00:23:49.590Z,17.27
2018-09-14T00:26:17.968Z,14.20
2018-09-14T00:28:46.713Z,14.13
2018-09-14T00:31:15.176Z,17.33
2018-09-14T00:33:44.232Z,15.30
2018-09-14T00:36:12.627Z,14.63
2018-09-14T00:38:41.947Z,19.80
2018-09-14T00:41:10.377Z,15.23
2018-09-14T00:43:38.819Z,18.30
2018-09-14T00:46:07.405Z,17.93
2018-09-14T00:48:35.843Z,14.83
2018-09-14T00:51:04.468Z,17.80
2018-09-14T00:53:32.910Z,15.47
2018-09-14T00:56:01.322Z,16.00
2018-09-14T00:58:30.489Z,19.40
2018-09-14T01:00:58.896Z,13.47
2018-09-14T01:03:26.271Z,17.90
2018-09-14T01:05:54.700Z,14.47
2018-09-14T01:08:23.165Z,15.20
2018-09-14T01:10:51.696Z,18.50
2018-09-14T01:13:20.167Z,20.13
2018-09-14T01:15:49.316Z,16.03
2018-09-14T01:18:17.812Z,14.57
2018-09-14T01:20:46.280Z,15.30
2018-09-14T01:23:14.697Z,17.63
2018-09-14T01:25:43.126Z,16.10
2018-09-14T01:28:11.566Z,13.20
2018-09-14T01:30:39.996Z,15.33
2018-09-14T01:33:08.461Z,16.20
2018-09-14T01:35:42.145Z,14.03
2018-09-14T01:38:10.753Z,16.03
2018-09-14T01:40:39.164Z,18.53
2018-09-14T01:43:07.582Z,14.47
2018-09-14T01:45:35.996Z,15.20
2018-09-14T01:48:04.465Z,16.40
2018-09-14T01:50:32.913Z,15.23
2018-09-14T01:53:01.340Z,13.20
2018-09-14T01:55:29.766Z,14.43
2018-09-14T01:57:58.208Z,18.27
2018-09-14T02:00:26.588Z,13.90
2018-09-14T02:02:55.077Z,19.63
2018-09-14T02:05:23.456Z,12.33
2018-09-14T02:07:51.859Z,13.20
2018-09-14T02:10:21.992Z,14.30
2018-09-14T02:12:50.971Z,13.97
2018-09-14T02:15:19.375Z,14.57
2018-09-14T02:17:47.750Z,14.93
2018-09-14T02:20:17.601Z,16.53
2018-09-14T02:22:46.444Z,11.67
2018-09-14T02:25:14.833Z,13.43
2018-09-14T02:27:43.261Z,14.03
2018-09-14T02:30:11.718Z,16.20
2018-09-14T02:32:40.203Z,16.77
2018-09-14T02:35:08.584Z,13.70
2018-09-14T02:37:37.048Z,18.60
2018-09-14T02:40:05.484Z,15.93
2018-09-14T02:42:33.954Z,21.77
2018-09-14T02:45:02.342Z,17.30
2018-09-14T02:47:30.764Z,18.53
2018-09-14T02:49:59.143Z,14.73
2018-09-14T02:52:27.559Z,11.83
2018-09-14T02:54:56.049Z,13.33
2018-09-14T02:57:24.502Z,13.27
2018-09-14T02:59:52.924Z,14.83
2018-09-14T03:02:21.319Z,13.23
2018-09-14T03:04:49.712Z,13.27
2018-09-14T03:07:18.253Z,18.57
2018-09-14T03:09:46.657Z,14.10
2018-09-14T03:12:15.104Z,19.27
2018-09-14T03:14:43.533Z,15.53
2018-09-14T03:17:11.939Z,18.70
2018-09-14T03:19:40.409Z,12.77
2018-09-14T03:22:08.804Z,16.53
2018-09-14T03:24:37.271Z,13.23
2018-09-14T03:27:05.847Z,20.00
2018-09-14T03:29:34.328Z,19.47
2018-09-14T03:32:02.733Z,20.70
2018-09-14T03:34:31.173Z,15.47
2018-09-14T03:36:59.631Z,13.87
2018-09-14T03:39:28.008Z,15.80
2018-09-14T03:41:56.411Z,12.77
2018-09-14T03:44:25.501Z,11.77
2018-09-14T03:46:53.916Z,13.07
2018-09-14T03:49:22.359Z,11.90
2018-09-14T03:51:50.829Z,10.23
2018-09-14T03:54:19.252Z,16.77
2018-09-14T03:56:47.685Z,10.97
2018-09-14T03:59:16.027Z,15.13
2018-09-14T04:01:44.451Z,16.83
2018-09-14T04:04:12.850Z,18.83
2018-09-14T04:06:41.315Z,12.07
2018-09-14T04:09:10.989Z,15.90
2018-09-14T04:11:39.462Z,20.77
2018-09-14T04:14:08.256Z,20.60
2018-09-14T04:16:36.685Z,20.20
2018-09-14T04:19:05.734Z,18.47
2018-09-14T04:21:35.621Z,20.13
2018-09-14T04:24:04.308Z,23.03
2018-09-14T04:26:32.789Z,16.57
2018-09-14T04:29:01.511Z,15.47
2018-09-14T04:31:29.947Z,15.10
2018-09-14T04:33:58.386Z,14.53
2018-09-14T04:36:26.811Z,13.37
2018-09-14T04:38:55.290Z,16.23
2018-09-14T04:41:23.720Z,17.87
2018-09-14T04:43:52.212Z,16.67
2018-09-14T04:46:20.652Z,14.37
2018-09-14T04:48:49.097Z,19.00
2018-09-14T04:51:17.541Z,13.53
2018-09-14T04:53:45.922Z,17.23
2018-09-14T04:56:14.429Z,13.70
2018-09-14T04:58:42.846Z,14.40
2018-09-14T05:01:11.359Z,11.27
2018-09-14T05:03:39.817Z,12.53
2018-09-14T05:06:08.362Z,10.60
2018-09-14T05:08:36.791Z,13.87
2018-09-14T05:11:05.397Z,17.70
2018-09-14T05:13:34.516Z,18.77
2018-09-14T05:16:02.956Z,16.67
2018-09-14T05:18:31.556Z,18.03
2018-09-14T05:21:00.046Z,14.37
2018-09-14T05:23:28.473Z,20.47
2018-09-14T05:25:57.872Z,18.67
2018-09-14T05:28:26.356Z,18.73
2018-09-14T05:30:54.745Z,19.13
2018-09-14T05:33:23.939Z,17.27
2018-09-14T05:35:52.385Z,17.80
2018-09-14T05:38:20.893Z,24.37
2018-09-14T05:40:49.292Z,24.57
2018-09-14T05:43:18.160Z,20.77
2018-09-14T05:45:46.699Z,25.00
2018-09-14T05:48:15.432Z,16.97
2018-09-14T05:50:43.827Z,21.23
2018-09-14T05:53:12.393Z,21.50
2018-09-14T05:55:41.621Z,16.53
2018-09-14T05:58:10.138Z,18.07
2018-09-14T06:00:38.672Z,16.93
2018-09-14T06:03:07.092Z,16.80
2018-09-14T06:05:35.510Z,18.83
2018-09-14T06:08:04.059Z,19.50
2018-09-14T06:10:32.552Z,19.90
2018-09-14T06:13:01.076Z,20.83
2018-09-14T06:15:29.498Z,21.13
2018-09-14T06:17:57.922Z,17.77
2018-09-14T06:20:26.383Z,18.63
2018-09-14T06:22:55.857Z,21.13
2018-09-14T06:25:24.564Z,18.97
2018-09-14T06:27:53.028Z,21.97
2018-09-14T06:30:21.528Z,23.00
2018-09-14T06:32:49.956Z,21.80
2018-09-14T06:35:18.364Z,22.20
2018-09-14T06:37:46.764Z,23.80
2018-09-14T06:40:15.168Z,22.33
2018-09-14T06:42:43.717Z,23.63
2018-09-14T06:45:12.181Z,26.00
2018-09-14T06:47:41.434Z,32.87
2018-09-14T06:50:09.885Z,25.13
2018-09-14T06:52:38.274Z,29.63
2018-09-14T06:55:06.737Z,30.40
2018-09-14T06:57:35.206Z,27.07
2018-09-14T07:00:03.721Z,26.53
2018-09-14T07:02:32.105Z,34.90
2018-09-14T07:05:00.540Z,35.80
2018-09-14T07:07:28.996Z,37.90
2018-09-14T07:09:57.405Z,31.57
2018-09-14T07:12:25.814Z,35.23
2018-09-14T07:14:54.262Z,37.43
2018-09-14T07:17:22.678Z,41.13
2018-09-14T07:19:51.107Z,39.30
2018-09-14T07:22:19.633Z,40.23
2018-09-14T07:24:48.127Z,44.07
2018-09-14T07:27:16.432Z,48.40
2018-09-14T07:29:44.848Z,51.60
2018-09-14T07:32:13.351Z,51.90
2018-09-14T07:34:41.742Z,58.47
2018-09-14T07:37:10.233Z,57.57
2018-09-14T07:39:38.621Z,53.50
2018-09-14T07:42:07.097Z,57.63
2018-09-14T07:44:35.522Z,56.47
2018-09-14T07:47:04.018Z,54.33
2018-09-14T07:49:32.469Z,54.20
2018-09-14T07:52:00.906Z,51.03
2018-09-14T07:54:29.357Z,55.77
2018-09-14T07:56:57.805Z,50.93
2018-09-14T07:59:26.376Z,57.77
2018-09-14T08:01:54.826Z,48.63
2018-09-14T08:04:23.242Z,55.03
2018-09-14T08:06:51.671Z,52.37
2018-09-14T08:09:20.146Z,55.47
2018-09-14T08:11:48.649Z,56.17
2018-09-14T08:14:17.082Z,54.97
2018-09-14T08:16:45.553Z,50.50
2018-09-14T08:19:14.011Z,58.23
2018-09-14T08:21:42.498Z,59.13
2018-09-14T08:24:11.149Z,52.73
2018-09-14T08:26:39.632Z,55.10
2018-09-14T08:29:08.055Z,53.93
2018-09-14T08:31:36.487Z,50.67
2018-09-14T08:34:04.897Z,46.70
2018-09-14T08:36:33.284Z,45.80
2018-09-14T08:39:01.805Z,47.83
2018-09-14T08:41:30.464Z,58.37
2018-09-14T08:43:58.868Z,49.30
2018-09-14T08:46:27.294Z,48.03
2018-09-14T08:48:55.710Z,50.17
2018-09-14T08:51:24.121Z,45.10
2018-09-14T08:53:52.505Z,52.80
2018-09-14T08:56:21.037Z,52.07
2018-09-14T08:58:49.588Z,51.10
2018-09-14T09:01:17.991Z,56.63
2018-09-14T09:03:46.461Z,54.80
2018-09-14T09:06:14.813Z,60.63
2018-09-14T09:08:43.258Z,66.33
2018-09-14T09:11:11.689Z,52.30
2018-09-14T09:13:40.122Z,59.30
2018-09-14T09:16:08.569Z,56.40
2018-09-14T09:18:37.042Z,61.97
2018-09-14T09:21:05.457Z,61.90
2018-09-14T09:23:33.960Z,52.93
2018-09-14T09:26:02.302Z,63.23
2018-09-14T09:28:30.750Z,62.27
2018-09-14T09:30:59.144Z,64.43
2018-09-14T09:33:27.567Z,60.33
2018-09-14T09:35:56.081Z,62.10
2018-09-14T09:38:24.545Z,61.97
2018-09-14T09:40:52.990Z,63.40
2018-09-14T09:43:21.663Z,63.50
2018-09-14T09:45:50.148Z,64.17
2018-09-14T09:48:18.574Z,64.40
2018-09-14T09:50:46.993Z,67.73
2018-09-14T09:53:15.468Z,64.83
2018-09-14T09:55:43.900Z,67.80
2018-09-14T09:58:12.892Z,65.00
2018-09-14T10:00:46.656Z,64.13
2018-09-14T10:03:20.496Z,61.17
2018-09-14T10:05:54.527Z,55.97
2018-09-14T10:08:22.937Z,57.60
2018-09-14T10:10:51.343Z,60.83
2018-09-14T10:13:20.401Z,53.10
2018-09-14T10:15:49.533Z,49.93
2018-09-14T10:18:17.974Z,51.97
2018-09-14T10:20:46.443Z,50.83
2018-09-14T10:23:14.774Z,58.00
2018-09-14T10:25:43.168Z,54.00
2018-09-14T10:28:11.569Z,45.10
2018-09-14T10:30:39.944Z,50.53
2018-09-14T10:33:08.991Z,40.57
2018-09-14T10:35:37.461Z,38.30
2018-09-14T10:38:06.037Z,36.53
2018-09-14T10:40:34.555Z,33.63
2018-09-14T10:43:03.095Z,28.07
2018-09-14T10:45:31.529Z,32.53
2018-09-14T10:47:59.953Z,35.07
2018-09-14T10:50:28.368Z,28.67
2018-09-14T10:52:56.833Z,24.80
2018-09-14T10:55:25.369Z,23.10
2018-09-14T10:57:54.759Z,33.23
2018-09-14T11:00:23.169Z,19.43
2018-09-14T11:02:51.621Z,22.17
2018-09-14T11:05:20.029Z,19.30
2018-09-14T11:07:48.412Z,22.97
2018-09-14T11:10:16.884Z,24.23
2018-09-14T11:12:45.385Z,24.13
2018-09-14T11:15:13.766Z,28.00
2018-09-14T11:17:42.169Z,28.70
2018-09-14T11:20:10.580Z,20.60
2018-09-14T11:22:38.959Z,20.67
2018-09-14T11:25:07.590Z,16.13
2018-09-14T11:27:35.873Z,22.80
2018-09-14T11:30:04.488Z,20.90
2018-09-14T11:32:33.188Z,17.30
2018-09-14T11:35:01.696Z,20.10
2018-09-14T11:37:30.201Z,15.53
2018-09-14T11:40:00.666Z,19.63
2018-09-14T11:42:29.229Z,19.10
2018-09-14T11:44:57.803Z,14.07
2018-09-14T11:47:26.618Z,15.20
2018-09-14T11:49:55.328Z,23.07
2018-09-14T11:52:24.279Z,23.20
2018-09-14T11:54:52.774Z,17.20
2018-09-14T11:57:21.307Z,20.43
2018-09-14T11:59:49.784Z,17.63
2018-09-14T12:02:18.190Z,23.07
2018-09-14T12:04:46.623Z,18.60
2018-09-14T12:07:15.014Z,22.30
2018-09-14T12:09:43.411Z,25.63
2018-09-14T12:12:11.832Z,19.13
2018-09-14T12:14:40.229Z,17.33
2018-09-14T12:17:08.645Z,14.20
2018-09-14T12:19:37.080Z,15.60
2018-09-14T12:22:05.545Z,17.57
2018-09-14T12:24:34.776Z,15.43
2018-09-14T12:27:03.169Z,15.90
2018-09-14T12:29:31.611Z,17.83
2018-09-14T12:32:00.033Z,16.83
2018-09-14T12:34:28.388Z,14.97
2018-09-14T12:36:57.721Z,13.07
2018-09-14T12:39:26.116Z,22.10
2018-09-14T12:41:54.516Z,16.33
2018-09-14T12:44:23.710Z,17.43
2018-09-14T12:46:52.187Z,19.23
2018-09-14T12:49:20.619Z,14.17
2018-09-14T12:51:49.110Z,16.67
2018-09-14T12:54:17.576Z,15.00
2018-09-14T12:56:45.983Z,9.87
2018-09-14T12:59:15.004Z,15.90
2018-09-14T13:01:43.398Z,19.87
2018-09-14T13:04:11.841Z,16.30
2018-09-14T13:06:40.239Z,13.50
2018-09-14T13:09:10.291Z,11.63
2018-09-14T13:11:39.171Z,11.60
2018-09-14T13:14:08.000Z,15.10
2018-09-14T13:16:36.498Z,14.23
2018-09-14T13:19:05.132Z,10.87
2018-09-14T13:21:34.219Z,9.10
2018-09-14T13:24:02.955Z,15.03
2018-09-14T13:26:31.363Z,14.30
2018-09-14T13:29:00.125Z,15.73
2018-09-14T13:31:28.564Z,15.23
2018-09-14T13:33:57.595Z,9.93
2018-09-14T13:36:26.376Z,12.23
2018-09-14T13:38:55.420Z,10.53
2018-09-14T13:41:23.876Z,8.77
2018-09-14T13:43:52.277Z,15.03
2018-09-14T13:46:20.683Z,13.57
2018-09-14T13:48:49.264Z,7.97
2018-09-14T13:51:17.720Z,21.17
2018-09-14T13:53:46.125Z,19.20
2018-09-14T13:56:14.580Z,9.00
2018-09-14T13:58:43.113Z,19.87
2018-09-14T14:01:11.644Z,17.90
2018-09-14T14:03:40.049Z,12.73
2018-09-14T14:06:08.466Z,13.47
2018-09-14T14:08:36.963Z,12.53
2018-09-14T14:11:05.380Z,14.03
2018-09-14T14:13:33.835Z,14.10
2018-09-14T14:16:02.301Z,14.37
2018-09-14T14:18:30.745Z,10.40
2018-09-14T14:20:59.168Z,12.40
2018-09-14T14:23:27.570Z,18.53
2018-09-14T14:25:56.023Z,15.40
2018-09-14T14:28:24.665Z,9.10
2018-09-14T14:30:53.082Z,16.67
2018-09-14T14:33:21.515Z,10.33
2018-09-14T14:35:49.978Z,12.77
2018-09-14T14:38:18.415Z,11.77
2018-09-14T14:40:46.855Z,14.03
2018-09-14T14:43:15.303Z,10.23
2018-09-14T14:45:43.741Z,7.23
2018-09-14T14:48:12.152Z,13.50
2018-09-14T14:50:40.938Z,10.00
2018-09-14T14:53:09.413Z,13.00
2018-09-14T14:55:38.857Z,10.07
2018-09-14T14:58:07.291Z,7.40
2018-09-14T15:00:35.768Z,9.90
2018-09-14T15:03:04.190Z,8.03
2018-09-14T15:05:32.640Z,7.67
2018-09-14T15:08:01.873Z,5.90
2018-09-14T15:10:30.320Z,9.53
2018-09-14T15:12:58.785Z,12.83
2018-09-14T15:15:27.238Z,7.50
2018-09-14T15:17:55.670Z,9.17
2018-09-14T15:20:24.156Z,10.60
2018-09-14T15:22:52.617Z,8.80
2018-09-14T15:25:21.442Z,11.50
2018-09-14T15:27:50.036Z,6.87
2018-09-14T15:30:18.431Z,9.00
2018-09-14T15:32:46.891Z,12.57
2018-09-14T15:35:15.418Z,7.30
2018-09-14T15:37:43.857Z,9.53
2018-09-14T15:40:12.337Z,9.47
2018-09-14T15:42:40.823Z,9.43
2018-09-14T15:45:09.314Z,8.37
2018-09-14T15:47:37.769Z,14.80
2018-09-14T15:50:06.527Z,10.30
2018-09-14T15:52:34.937Z,7.53
2018-09-14T15:55:03.414Z,6.97
2018-09-14T15:57:31.920Z,9.67
2018-09-14T16:00:01.240Z,8.73
2018-09-14T16:02:29.741Z,7.50
2018-09-14T16:04:58.268Z,7.10
2018-09-14T16:07:26.808Z,8.20
2018-09-14T16:09:55.276Z,7.40
2018-09-14T16:12:24.284Z,9.13
2018-09-14T16:14:53.763Z,10.13
2018-09-14T16:17:22.214Z,7.53
2018-09-14T16:19:50.805Z,6.37
2018-09-14T16:22:19.310Z,8.07
2018-09-14T16:24:47.730Z,5.77
2018-09-14T16:27:16.213Z,13.83
2018-09-14T16:29:44.601Z,8.40
2018-09-14T16:32:13.008Z,6.60
2018-09-14T16:34:41.590Z,12.40
2018-09-14T16:37:10.906Z,7.27
2018-09-14T16:39:39.366Z,15.80
2018-09-14T16:42:07.945Z,8.40
2018-09-14T16:44:36.528Z,8.53
2018-09-14T16:47:04.908Z,10.73
2018-09-14T16:49:33.360Z,9.07
2018-09-14T16:52:01.793Z,9.40
2018-09-14T16:54:30.222Z,9.97
2018-09-14T16:56:59.677Z,16.80
2018-09-14T16:59:28.087Z,7.10
2018-09-14T17:01:56.564Z,9.30
2018-09-14T17:04:25.007Z,10.00
2018-09-14T17:06:53.473Z,7.63
2018-09-14T17:09:21.950Z,7.13
2018-09-14T17:11:50.700Z,23.00
2018-09-14T17:14:19.754Z,14.27
2018-09-14T17:16:48.868Z,8.40
2018-09-14T17:19:17.977Z,6.87
2018-09-14T17:21:46.490Z,8.70
2018-09-14T17:24:14.897Z,6.70
2018-09-14T17:26:43.349Z,8.70
2018-09-14T17:29:11.750Z,5.97
2018-09-14T17:31:40.165Z,5.60
2018-09-14T17:34:08.622Z,7.17
2018-09-14T17:36:37.038Z,5.30
2018-09-14T17:39:07.760Z,11.70
2018-09-14T17:41:36.186Z,7.07
2018-09-14T17:44:04.658Z,6.97
2018-09-14T17:46:33.134Z,6.30
2018-09-14T17:49:01.582Z,10.90
2018-09-14T17:51:30.059Z,8.30
2018-09-14T17:53:58.556Z,12.00
2018-09-14T17:56:26.961Z,10.20
2018-09-14T17:58:55.780Z,9.50
2018-09-14T18:01:24.257Z,9.70
2018-09-14T18:03:52.732Z,11.57
2018-09-14T18:06:21.230Z,6.50
2018-09-14T18:08:49.846Z,7.43
2018-09-14T18:11:18.357Z,8.20
2018-09-14T18:13:46.985Z,6.23
2018-09-14T18:16:15.527Z,3.87
2018-09-14T18:18:43.900Z,9.23
2018-09-14T18:21:12.549Z,9.67
2018-09-14T18:23:40.989Z,13.30
2018-09-14T18:26:09.444Z,9.43
2018-09-14T18:28:39.503Z,5.80
2018-09-14T18:31:07.936Z,8.83
2018-09-14T18:33:36.360Z,7.53
2018-09-14T18:36:04.897Z,11.13
2018-09-14T18:38:33.331Z,9.77
2018-09-14T18:41:01.769Z,8.60
2018-09-14T18:43:30.189Z,7.37
2018-09-14T18:45:58.632Z,8.43
2018-09-14T18:48:27.037Z,9.57
2018-09-14T18:50:55.482Z,12.83
2018-09-14T18:53:23.889Z,11.90
2018-09-14T18:55:52.322Z,7.90
2018-09-14T18:58:20.810Z,12.47
2018-09-14T19:00:49.199Z,22.23
2018-09-14T19:03:17.627Z,27.00
2018-09-14T19:05:46.113Z,27.27
2018-09-14T19:08:14.564Z,24.10
2018-09-14T19:10:43.098Z,12.67
2018-09-14T19:13:11.602Z,8.87
2018-09-14T19:15:40.000Z,9.43
2018-09-14T19:18:08.749Z,12.30
2018-09-14T19:20:37.442Z,11.30
2018-09-14T19:23:05.886Z,8.87
2018-09-14T19:25:34.414Z,14.07
2018-09-14T19:28:02.845Z,11.60
2018-09-14T19:30:32.698Z,7.00
2018-09-14T19:33:01.172Z,15.33
2018-09-14T19:35:29.615Z,9.30
2018-09-14T19:37:58.080Z,12.50
2018-09-14T19:40:26.533Z,7.17
2018-09-14T19:42:55.100Z,5.73
2018-09-14T19:45:23.589Z,12.70
2018-09-14T19:47:52.064Z,16.30
2018-09-14T19:50:20.535Z,13.80
2018-09-14T19:52:49.041Z,7.73
2018-09-14T19:55:17.500Z,6.07
2018-09-14T19:57:45.874Z,8.80
2018-09-14T20:00:14.449Z,8.20
2018-09-14T20:02:42.845Z,7.97
2018-09-14T20:05:11.331Z,11.33
2018-09-14T20:07:39.795Z,5.23
2018-09-14T20:10:08.328Z,6.03
2018-09-14T20:12:36.773Z,10.00
2018-09-14T20:15:05.831Z,6.30
2018-09-14T20:17:34.322Z,9.17
2018-09-14T20:20:02.789Z,9.00
2018-09-14T20:22:31.287Z,12.30
2018-09-14T20:24:59.762Z,6.33
2018-09-14T20:27:28.604Z,43.20
2018-09-14T20:29:57.005Z,9.60
2018-09-14T20:32:25.441Z,6.97
2018-09-14T20:34:53.908Z,5.70
2018-09-14T20:37:22.375Z,10.27
2018-09-14T20:39:50.777Z,7.03
2018-09-14T20:42:19.225Z,16.67
2018-09-14T20:44:47.680Z,7.70
2018-09-14T20:47:16.127Z,6.37
2018-09-14T20:49:44.523Z,10.13
2018-09-14T20:52:13.017Z,7.60
2018-09-14T20:54:41.448Z,6.80
2018-09-14T20:57:09.860Z,9.23
2018-09-14T20:59:39.220Z,9.07
2018-09-14T21:02:07.658Z,7.60
2018-09-14T21:04:36.068Z,17.07
2018-09-14T21:07:04.506Z,10.20
2018-09-14T21:09:32.915Z,7.30
2018-09-14T21:12:01.408Z,6.43
2018-09-14T21:14:29.874Z,7.30
2018-09-14T21:16:58.288Z,5.57
2018-09-14T21:19:26.789Z,11.67
2018-09-14T21:21:55.369Z,7.53
2018-09-14T21:24:23.797Z,9.93
2018-09-14T21:26:52.226Z,8.40
2018-09-14T21:29:20.668Z,12.27
2018-09-14T21:31:49.103Z,6.93
2018-09-14T21:34:17.536Z,6.70
2018-09-14T21:36:45.951Z,9.40
2018-09-14T21:39:14.344Z,7.30
2018-09-14T21:41:43.242Z,10.93
2018-09-14T21:44:11.647Z,7.97
2018-09-14T21:46:40.213Z,9.57
2018-09-14T21:49:08.704Z,12.43
2018-09-14T21:51:37.206Z,6.10
2018-09-14T21:54:05.723Z,6.40
2018-09-14T21:56:34.135Z,14.63
2018-09-14T21:59:02.595Z,7.50
2018-09-14T22:01:31.339Z,5.20
2018-09-14T22:04:00.808Z,6.80
2018-09-14T22:06:29.302Z,6.50
2018-09-14T22:08:57.735Z,5.60
2018-09-14T22:11:26.212Z,8.37
2018-09-14T22:13:54.637Z,11.53
2018-09-14T22:16:23.036Z,8.87
2018-09-14T22:18:51.540Z,10.30
2018-09-14T22:21:19.963Z,8.60
2018-09-14T22:23:48.406Z,12.37
2018-09-14T22:26:16.825Z,10.47
2018-09-14T22:28:46.212Z,8.60
2018-09-14T22:31:14.589Z,8.20
2018-09-14T22:33:43.065Z,7.60
2018-09-14T22:36:11.485Z,6.40
2018-09-14T22:38:39.919Z,7.93
2018-09-14T22:41:08.382Z,13.20
2018-09-14T22:43:36.792Z,8.37
2018-09-14T22:46:05.251Z,7.33
2018-09-14T22:48:33.644Z,12.57
2018-09-14T22:51:02.048Z,7.83
2018-09-14T22:53:30.480Z,6.73
2018-09-14T22:55:58.946Z,11.90
2018-09-14T22:58:27.328Z,7.87
2018-09-14T23:01:01.138Z,6.23
2018-09-14T23:03:29.584Z,10.10
2018-09-14T23:05:58.000Z,9.83
2018-09-14T23:08:26.431Z,5.80
2018-09-14T23:10:54.807Z,5.90
2018-09-14T23:13:23.212Z,6.30
2018-09-14T23:15:59.200Z,9.23
2018-09-14T23:18:28.126Z,11.40
2018-09-14T23:20:56.521Z,9.73
2018-09-14T23:23:25.031Z,10.40
2018-09-14T23:25:55.169Z,8.63
2018-09-14T23:28:23.600Z,7.63
2018-09-14T23:30:52.025Z,5.63
2018-09-14T23:33:20.915Z,8.13
2018-09-14T23:35:49.538Z,8.07
2018-09-14T23:38:17.992Z,6.83
2018-09-14T23:40:46.395Z,4.60
2018-09-14T23:43:14.823Z,11.30
2018-09-14T23:45:43.202Z,7.20
2018-09-14T23:48:11.656Z,8.77
2018-09-14T23:50:40.748Z,7.20
2018-09-14T23:53:09.145Z,10.43
2018-09-14T23:55:37.544Z,7.20
2018-09-14T23:58:06.078Z,7.37
